sensor_id;sensor_type;location;lat;lon;timestamp;temperature;humidity
16625;DHT22;8426;48.496;9.098;2023-04-24T00:00:48;10.00;99.90
16625;DHT22;8426;48.496;9.098;2023-04-24T00:05:54;10.10;99.90
16625;DHT22;8426;48.496;9.098;2023-04-24T00:11:01;10.00;99.90
16625;DHT22;8426;48.496;9.098;2023-04-24T00:16:05;9.90;99.90
16625;DHT22;8426;48.496;9.098;2023-04-24T00:21:11;9.90;99.90
16625;DHT22;8426;48.496;9.098;2023-04-24T00:26:15;9.90;99.90
16625;DHT22;8426;48.496;9.098;2023-04-24T00:31:18;10.00;99.90
16625;DHT22;8426;48.496;9.098;2023-04-24T00:36:23;10.00;99.90
16625;DHT22;8426;48.496;9.098;2023-04-24T00:41:28;9.90;99.90
16625;DHT22;8426;48.496;9.098;2023-04-24T00:46:32;9.90;99.90
16625;DHT22;8426;48.496;9.098;2023-04-24T00:51:37;9.90;99.90
16625;DHT22;8426;48.496;9.098;2023-04-24T00:56:42;9.90;99.90
16625;DHT22;8426;48.496;9.098;2023-04-24T01:01:46;9.90;99.90
16625;DHT22;8426;48.496;9.098;2023-04-24T01:06:52;9.90;99.90
16625;DHT22;8426;48.496;9.098;2023-04-24T01:11:56;9.80;99.90
16625;DHT22;8426;48.496;9.098;2023-04-24T01:17:00;9.80;99.90
16625;DHT22;8426;48.496;9.098;2023-04-24T01:22:12;9.70;99.90
16625;DHT22;8426;48.496;9.098;2023-04-24T01:27:16;9.70;99.90
16625;DHT22;8426;48.496;9.098;2023-04-24T01:32:19;9.60;99.90
16625;DHT22;8426;48.496;9.098;2023-04-24T01:37:24;9.50;99.90
16625;DHT22;8426;48.496;9.098;2023-04-24T01:42:29;9.30;99.90
16625;DHT22;8426;48.496;9.098;2023-04-24T01:47:34;9.10;99.90
16625;DHT22;8426;48.496;9.098;2023-04-24T01:52:39;9.00;99.90
16625;DHT22;8426;48.496;9.098;2023-04-24T01:57:49;9.10;99.90
16625;DHT22;8426;48.496;9.098;2023-04-24T02:02:54;9.10;99.90
16625;DHT22;8426;48.496;9.098;2023-04-24T02:08:00;9.20;99.90
16625;DHT22;8426;48.496;9.098;2023-04-24T02:13:06;9.30;99.90
16625;DHT22;8426;48.496;9.098;2023-04-24T02:18:10;9.30;99.90
16625;DHT22;8426;48.496;9.098;2023-04-24T02:23:16;9.30;99.90
16625;DHT22;8426;48.496;9.098;2023-04-24T02:28:20;9.30;99.90
16625;DHT22;8426;48.496;9.098;2023-04-24T02:33:23;9.20;99.90
16625;DHT22;8426;48.496;9.098;2023-04-24T02:38:28;9.20;99.90
16625;DHT22;8426;48.496;9.098;2023-04-24T02:43:32;9.10;99.90
16625;DHT22;8426;48.496;9.098;2023-04-24T02:48:35;9.10;99.90
16625;DHT22;8426;48.496;9.098;2023-04-24T02:53:40;9.10;99.90
16625;DHT22;8426;48.496;9.098;2023-04-24T02:58:44;9.20;99.90
16625;DHT22;8426;48.496;9.098;2023-04-24T03:03:47;9.20;99.90
16625;DHT22;8426;48.496;9.098;2023-04-24T03:08:53;9.10;99.90
16625;DHT22;8426;48.496;9.098;2023-04-24T03:13:56;9.10;99.90
16625;DHT22;8426;48.496;9.098;2023-04-24T03:18:59;9.10;99.90
16625;DHT22;8426;48.496;9.098;2023-04-24T03:24:05;9.10;99.90
16625;DHT22;8426;48.496;9.098;2023-04-24T03:29:08;9.10;99.90
16625;DHT22;8426;48.496;9.098;2023-04-24T03:34:14;9.10;99.90
16625;DHT22;8426;48.496;9.098;2023-04-24T03:39:20;9.10;99.90
16625;DHT22;8426;48.496;9.098;2023-04-24T03:44:26;9.00;99.90
16625;DHT22;8426;48.496;9.098;2023-04-24T03:49:29;8.80;99.90
16625;DHT22;8426;48.496;9.098;2023-04-24T03:54:33;8.80;99.90
16625;DHT22;8426;48.496;9.098;2023-04-24T03:59:43;8.80;99.90
16625;DHT22;8426;48.496;9.098;2023-04-24T04:04:46;9.00;99.90
16625;DHT22;8426;48.496;9.098;2023-04-24T04:09:52;8.90;99.90
16625;DHT22;8426;48.496;9.098;2023-04-24T04:14:57;8.80;99.90
16625;DHT22;8426;48.496;9.098;2023-04-24T04:20:00;8.70;99.90
16625;DHT22;8426;48.496;9.098;2023-04-24T04:25:10;8.60;99.90
16625;DHT22;8426;48.496;9.098;2023-04-24T04:30:13;8.70;99.90
16625;DHT22;8426;48.496;9.098;2023-04-24T04:35:18;8.70;99.90
16625;DHT22;8426;48.496;9.098;2023-04-24T04:40:25;8.70;99.90
16625;DHT22;8426;48.496;9.098;2023-04-24T04:45:29;8.70;99.90
16625;DHT22;8426;48.496;9.098;2023-04-24T04:50:34;8.70;99.90
16625;DHT22;8426;48.496;9.098;2023-04-24T04:55:40;8.70;99.90
16625;DHT22;8426;48.496;9.098;2023-04-24T05:00:47;8.70;99.90
16625;DHT22;8426;48.496;9.098;2023-04-24T05:05:51;8.70;99.90
16625;DHT22;8426;48.496;9.098;2023-04-24T05:10:56;8.70;99.90
16625;DHT22;8426;48.496;9.098;2023-04-24T05:16:00;8.60;99.90
16625;DHT22;8426;48.496;9.098;2023-04-24T05:21:27;8.50;99.90
16625;DHT22;8426;48.496;9.098;2023-04-24T05:32:25;8.60;99.90
16625;DHT22;8426;48.496;9.098;2023-04-24T05:37:35;8.40;99.90
16625;DHT22;8426;48.496;9.098;2023-04-24T05:42:40;8.40;99.90
16625;DHT22;8426;48.496;9.098;2023-04-24T05:47:45;8.30;99.90
16625;DHT22;8426;48.496;9.098;2023-04-24T05:52:48;8.40;99.90
16625;DHT22;8426;48.496;9.098;2023-04-24T05:57:56;8.50;99.90
16625;DHT22;8426;48.496;9.098;2023-04-24T06:03:02;8.70;99.90
16625;DHT22;8426;48.496;9.098;2023-04-24T06:08:09;9.10;99.90
16625;DHT22;8426;48.496;9.098;2023-04-24T06:13:13;9.40;99.90
16625;DHT22;8426;48.496;9.098;2023-04-24T06:18:18;9.70;99.90
16625;DHT22;8426;48.496;9.098;2023-04-24T06:23:23;10.40;99.90
16625;DHT22;8426;48.496;9.098;2023-04-24T06:28:27;10.70;99.90
16625;DHT22;8426;48.496;9.098;2023-04-24T06:33:36;10.30;99.90
16625;DHT22;8426;48.496;9.098;2023-04-24T06:38:39;11.70;99.90
16625;DHT22;8426;48.496;9.098;2023-04-24T06:43:42;15.00;99.90
16625;DHT22;8426;48.496;9.098;2023-04-24T06:48:48;18.30;99.90
16625;DHT22;8426;48.496;9.098;2023-04-24T06:53:53;19.20;99.90
16625;DHT22;8426;48.496;9.098;2023-04-24T06:58:58;18.50;99.90
16625;DHT22;8426;48.496;9.098;2023-04-24T07:04:06;17.40;99.90
16625;DHT22;8426;48.496;9.098;2023-04-24T07:09:11;18.40;99.90
16625;DHT22;8426;48.496;9.098;2023-04-24T07:14:23;18.40;99.90
16625;DHT22;8426;48.496;9.098;2023-04-24T07:19:28;15.50;99.90
16625;DHT22;8426;48.496;9.098;2023-04-24T07:24:33;13.20;99.90
16625;DHT22;8426;48.496;9.098;2023-04-24T07:29:45;11.80;99.90
16625;DHT22;8426;48.496;9.098;2023-04-24T07:34:51;11.40;99.90
16625;DHT22;8426;48.496;9.098;2023-04-24T07:39:55;11.30;99.90
16625;DHT22;8426;48.496;9.098;2023-04-24T07:44:59;12.00;99.90
16625;DHT22;8426;48.496;9.098;2023-04-24T07:50:06;12.90;99.90
16625;DHT22;8426;48.496;9.098;2023-04-24T07:55:11;13.40;99.90
16625;DHT22;8426;48.496;9.098;2023-04-24T08:00:23;13.30;99.90
16625;DHT22;8426;48.496;9.098;2023-04-24T08:05:32;13.90;99.90
16625;DHT22;8426;48.496;9.098;2023-04-24T08:10:36;14.70;99.90
16625;DHT22;8426;48.496;9.098;2023-04-24T08:15:39;15.50;99.90
16625;DHT22;8426;48.496;9.098;2023-04-24T08:20:45;14.30;99.90
16625;DHT22;8426;48.496;9.098;2023-04-24T08:25:49;14.10;99.90
16625;DHT22;8426;48.496;9.098;2023-04-24T08:30:52;13.30;99.90
16625;DHT22;8426;48.496;9.098;2023-04-24T08:36:02;12.90;99.90
16625;DHT22;8426;48.496;9.098;2023-04-24T08:41:15;12.20;99.90
16625;DHT22;8426;48.496;9.098;2023-04-24T08:46:24;12.70;99.90
16625;DHT22;8426;48.496;9.098;2023-04-24T08:51:35;13.00;99.90
16625;DHT22;8426;48.496;9.098;2023-04-24T08:56:45;12.40;99.90
16625;DHT22;8426;48.496;9.098;2023-04-24T09:01:53;11.90;99.90
16625;DHT22;8426;48.496;9.098;2023-04-24T09:07:01;13.60;99.90
16625;DHT22;8426;48.496;9.098;2023-04-24T09:12:05;16.50;99.90
16625;DHT22;8426;48.496;9.098;2023-04-24T09:17:13;17.90;99.90
16625;DHT22;8426;48.496;9.098;2023-04-24T09:22:20;17.40;99.90
16625;DHT22;8426;48.496;9.098;2023-04-24T09:27:34;15.90;99.90
16625;DHT22;8426;48.496;9.098;2023-04-24T09:32:48;16.40;99.90
16625;DHT22;8426;48.496;9.098;2023-04-24T09:37:57;16.70;99.90
16625;DHT22;8426;48.496;9.098;2023-04-24T09:43:03;15.40;99.90
16625;DHT22;8426;48.496;9.098;2023-04-24T09:48:09;14.00;99.90
16625;DHT22;8426;48.496;9.098;2023-04-24T09:53:14;14.10;99.90
16625;DHT22;8426;48.496;9.098;2023-04-24T09:58:18;16.70;99.90
16625;DHT22;8426;48.496;9.098;2023-04-24T10:03:30;18.60;99.90
16625;DHT22;8426;48.496;9.098;2023-04-24T10:08:39;16.90;99.90
16625;DHT22;8426;48.496;9.098;2023-04-24T10:13:44;14.10;99.90
16625;DHT22;8426;48.496;9.098;2023-04-24T10:19:00;13.70;99.90
16625;DHT22;8426;48.496;9.098;2023-04-24T10:24:14;14.90;99.90
16625;DHT22;8426;48.496;9.098;2023-04-24T10:29:18;15.90;99.90
16625;DHT22;8426;48.496;9.098;2023-04-24T10:34:23;15.60;99.90
16625;DHT22;8426;48.496;9.098;2023-04-24T10:39:30;16.10;99.90
16625;DHT22;8426;48.496;9.098;2023-04-24T10:44:40;15.00;99.90
16625;DHT22;8426;48.496;9.098;2023-04-24T10:49:50;14.30;99.90
16625;DHT22;8426;48.496;9.098;2023-04-24T10:54:55;13.70;99.90
16625;DHT22;8426;48.496;9.098;2023-04-24T11:00:18;13.40;99.90
16625;DHT22;8426;48.496;9.098;2023-04-24T11:05:49;12.70;99.90
16625;DHT22;8426;48.496;9.098;2023-04-24T11:11:01;12.50;99.90
16625;DHT22;8426;48.496;9.098;2023-04-24T11:16:25;12.50;99.90
16625;DHT22;8426;48.496;9.098;2023-04-24T11:21:42;13.30;99.90
16625;DHT22;8426;48.496;9.098;2023-04-24T11:26:51;14.20;99.90
16625;DHT22;8426;48.496;9.098;2023-04-24T11:31:56;14.40;99.90
16625;DHT22;8426;48.496;9.098;2023-04-24T11:37:01;13.80;99.90
16625;DHT22;8426;48.496;9.098;2023-04-24T11:42:07;13.00;99.90
16625;DHT22;8426;48.496;9.098;2023-04-24T11:47:28;12.40;99.90
16625;DHT22;8426;48.496;9.098;2023-04-24T11:52:57;12.60;99.90
16625;DHT22;8426;48.496;9.098;2023-04-24T11:58:12;13.10;99.90
16625;DHT22;8426;48.496;9.098;2023-04-24T12:03:29;12.80;99.90
16625;DHT22;8426;48.496;9.098;2023-04-24T12:08:36;13.00;99.90
16625;DHT22;8426;48.496;9.098;2023-04-24T12:13:41;12.70;99.90
16625;DHT22;8426;48.496;9.098;2023-04-24T12:18:47;12.30;99.90
16625;DHT22;8426;48.496;9.098;2023-04-24T12:23:54;12.20;99.90
16625;DHT22;8426;48.496;9.098;2023-04-24T12:29:09;12.40;99.90
16625;DHT22;8426;48.496;9.098;2023-04-24T12:34:21;12.80;99.90
16625;DHT22;8426;48.496;9.098;2023-04-24T12:39:28;12.60;99.90
16625;DHT22;8426;48.496;9.098;2023-04-24T12:44:39;12.20;99.90
16625;DHT22;8426;48.496;9.098;2023-04-24T12:50:08;11.50;99.90
16625;DHT22;8426;48.496;9.098;2023-04-24T12:55:11;11.50;99.90
16625;DHT22;8426;48.496;9.098;2023-04-24T13:00:17;12.50;99.90
16625;DHT22;8426;48.496;9.098;2023-04-24T13:05:23;13.80;99.90
16625;DHT22;8426;48.496;9.098;2023-04-24T13:10:32;14.00;99.90
16625;DHT22;8426;48.496;9.098;2023-04-24T13:15:38;14.50;99.90
16625;DHT22;8426;48.496;9.098;2023-04-24T13:20:43;14.40;99.90
16625;DHT22;8426;48.496;9.098;2023-04-24T13:25:55;13.50;99.90
16625;DHT22;8426;48.496;9.098;2023-04-24T13:31:02;13.50;99.90
16625;DHT22;8426;48.496;9.098;2023-04-24T13:36:06;13.20;99.90
16625;DHT22;8426;48.496;9.098;2023-04-24T13:41:09;13.10;99.90
16625;DHT22;8426;48.496;9.098;2023-04-24T13:46:17;13.10;99.90
16625;DHT22;8426;48.496;9.098;2023-04-24T13:51:21;13.10;99.90
16625;DHT22;8426;48.496;9.098;2023-04-24T13:56:27;13.20;99.90
16625;DHT22;8426;48.496;9.098;2023-04-24T14:01:32;13.20;99.90
16625;DHT22;8426;48.496;9.098;2023-04-24T14:06:35;13.30;99.90
16625;DHT22;8426;48.496;9.098;2023-04-24T14:11:38;13.10;99.90
16625;DHT22;8426;48.496;9.098;2023-04-24T14:16:43;13.00;99.90
16625;DHT22;8426;48.496;9.098;2023-04-24T14:21:47;12.90;99.90
16625;DHT22;8426;48.496;9.098;2023-04-24T14:26:51;12.50;99.90
16625;DHT22;8426;48.496;9.098;2023-04-24T14:31:56;12.10;99.90
16625;DHT22;8426;48.496;9.098;2023-04-24T14:37:01;12.10;99.90
16625;DHT22;8426;48.496;9.098;2023-04-24T14:42:05;12.00;99.90
16625;DHT22;8426;48.496;9.098;2023-04-24T14:47:11;12.00;99.90
16625;DHT22;8426;48.496;9.098;2023-04-24T14:52:14;12.20;99.90
16625;DHT22;8426;48.496;9.098;2023-04-24T14:57:18;12.20;99.90
16625;DHT22;8426;48.496;9.098;2023-04-24T15:02:24;12.20;99.90
16625;DHT22;8426;48.496;9.098;2023-04-24T15:07:29;12.00;99.90
16625;DHT22;8426;48.496;9.098;2023-04-24T15:12:33;12.00;99.90
16625;DHT22;8426;48.496;9.098;2023-04-24T15:17:37;12.00;99.90
16625;DHT22;8426;48.496;9.098;2023-04-24T15:22:48;12.10;99.90
16625;DHT22;8426;48.496;9.098;2023-04-24T15:27:51;12.20;99.90
16625;DHT22;8426;48.496;9.098;2023-04-24T15:32:59;12.10;99.90
16625;DHT22;8426;48.496;9.098;2023-04-24T15:38:03;12.20;99.90
16625;DHT22;8426;48.496;9.098;2023-04-24T15:43:07;12.30;99.90
16625;DHT22;8426;48.496;9.098;2023-04-24T15:48:14;12.30;99.90
16625;DHT22;8426;48.496;9.098;2023-04-24T15:53:17;12.30;99.90
16625;DHT22;8426;48.496;9.098;2023-04-24T15:58:23;12.20;99.90
16625;DHT22;8426;48.496;9.098;2023-04-24T16:03:28;12.10;99.90
16625;DHT22;8426;48.496;9.098;2023-04-24T16:08:34;12.20;99.90
16625;DHT22;8426;48.496;9.098;2023-04-24T16:13:39;12.20;99.90
16625;DHT22;8426;48.496;9.098;2023-04-24T16:18:44;12.30;99.90
16625;DHT22;8426;48.496;9.098;2023-04-24T16:23:49;12.40;99.90
16625;DHT22;8426;48.496;9.098;2023-04-24T16:28:56;12.30;99.90
16625;DHT22;8426;48.496;9.098;2023-04-24T16:34:01;12.10;99.90
16625;DHT22;8426;48.496;9.098;2023-04-24T16:39:04;12.00;99.90
16625;DHT22;8426;48.496;9.098;2023-04-24T16:44:31;11.90;99.90
16625;DHT22;8426;48.496;9.098;2023-04-24T16:50:01;11.80;99.90
16625;DHT22;8426;48.496;9.098;2023-04-24T16:55:11;11.60;99.90
16625;DHT22;8426;48.496;9.098;2023-04-24T17:00:17;11.60;99.90
16625;DHT22;8426;48.496;9.098;2023-04-24T17:05:22;11.50;99.90
16625;DHT22;8426;48.496;9.098;2023-04-24T17:10:33;11.60;99.90
16625;DHT22;8426;48.496;9.098;2023-04-24T17:15:45;11.60;99.90
16625;DHT22;8426;48.496;9.098;2023-04-24T17:20:58;11.70;99.90
16625;DHT22;8426;48.496;9.098;2023-04-24T17:26:03;11.70;99.90
16625;DHT22;8426;48.496;9.098;2023-04-24T17:31:08;11.40;99.90
16625;DHT22;8426;48.496;9.098;2023-04-24T17:36:13;11.20;99.90
16625;DHT22;8426;48.496;9.098;2023-04-24T17:41:18;10.90;99.90
16625;DHT22;8426;48.496;9.098;2023-04-24T17:46:22;10.60;99.90
16625;DHT22;8426;48.496;9.098;2023-04-24T17:51:28;10.20;99.90
16625;DHT22;8426;48.496;9.098;2023-04-24T17:56:33;10.00;99.90
16625;DHT22;8426;48.496;9.098;2023-04-24T18:01:38;9.80;99.90
16625;DHT22;8426;48.496;9.098;2023-04-24T18:06:43;9.70;99.90
16625;DHT22;8426;48.496;9.098;2023-04-24T18:11:49;9.50;99.90
16625;DHT22;8426;48.496;9.098;2023-04-24T18:16:56;9.30;99.90
16625;DHT22;8426;48.496;9.098;2023-04-24T18:22:01;9.40;99.90
16625;DHT22;8426;48.496;9.098;2023-04-24T18:27:06;9.50;99.90
16625;DHT22;8426;48.496;9.098;2023-04-24T18:32:09;9.50;99.90
16625;DHT22;8426;48.496;9.098;2023-04-24T18:37:16;9.60;99.90
16625;DHT22;8426;48.496;9.098;2023-04-24T18:42:20;9.50;99.90
16625;DHT22;8426;48.496;9.098;2023-04-24T18:47:47;9.50;99.90
16625;DHT22;8426;48.496;9.098;2023-04-24T18:52:54;9.30;99.90
16625;DHT22;8426;48.496;9.098;2023-04-24T18:57:58;9.00;99.90
16625;DHT22;8426;48.496;9.098;2023-04-24T19:03:01;8.80;99.90
16625;DHT22;8426;48.496;9.098;2023-04-24T19:08:07;8.70;99.90
16625;DHT22;8426;48.496;9.098;2023-04-24T19:13:11;8.60;99.90
16625;DHT22;8426;48.496;9.098;2023-04-24T19:18:17;8.50;99.90
16625;DHT22;8426;48.496;9.098;2023-04-24T19:23:23;8.60;99.90
16625;DHT22;8426;48.496;9.098;2023-04-24T19:28:33;8.50;99.90
16625;DHT22;8426;48.496;9.098;2023-04-24T19:33:40;8.50;99.90
16625;DHT22;8426;48.496;9.098;2023-04-24T19:38:50;8.50;99.90
16625;DHT22;8426;48.496;9.098;2023-04-24T19:43:54;8.40;99.90
16625;DHT22;8426;48.496;9.098;2023-04-24T19:48:57;8.40;99.90
16625;DHT22;8426;48.496;9.098;2023-04-24T19:54:05;8.30;99.90
16625;DHT22;8426;48.496;9.098;2023-04-24T19:59:10;8.10;99.90
16625;DHT22;8426;48.496;9.098;2023-04-24T20:04:13;8.00;99.90
16625;DHT22;8426;48.496;9.098;2023-04-24T20:09:18;7.70;99.90
16625;DHT22;8426;48.496;9.098;2023-04-24T20:14:22;7.50;99.90
16625;DHT22;8426;48.496;9.098;2023-04-24T20:19:28;7.30;99.90
16625;DHT22;8426;48.496;9.098;2023-04-24T20:24:36;7.10;99.90
16625;DHT22;8426;48.496;9.098;2023-04-24T20:29:40;6.90;99.90
16625;DHT22;8426;48.496;9.098;2023-04-24T20:34:44;6.70;99.90
16625;DHT22;8426;48.496;9.098;2023-04-24T20:39:49;6.60;99.90
16625;DHT22;8426;48.496;9.098;2023-04-24T20:44:53;6.40;99.90
16625;DHT22;8426;48.496;9.098;2023-04-24T20:49:56;6.30;99.90
16625;DHT22;8426;48.496;9.098;2023-04-24T20:55:06;6.20;99.90
16625;DHT22;8426;48.496;9.098;2023-04-24T21:00:11;6.20;99.90
16625;DHT22;8426;48.496;9.098;2023-04-24T21:05:23;6.40;99.90
16625;DHT22;8426;48.496;9.098;2023-04-24T21:10:30;6.60;99.90
16625;DHT22;8426;48.496;9.098;2023-04-24T21:15:52;6.90;99.90
16625;DHT22;8426;48.496;9.098;2023-04-24T21:21:03;7.10;99.90
16625;DHT22;8426;48.496;9.098;2023-04-24T21:26:11;7.20;99.90
16625;DHT22;8426;48.496;9.098;2023-04-24T21:31:17;7.20;99.90
16625;DHT22;8426;48.496;9.098;2023-04-24T21:36:28;7.20;99.90
16625;DHT22;8426;48.496;9.098;2023-04-24T21:41:36;7.20;99.90
16625;DHT22;8426;48.496;9.098;2023-04-24T21:46:39;7.20;99.90
16625;DHT22;8426;48.496;9.098;2023-04-24T21:51:43;7.20;99.90
16625;DHT22;8426;48.496;9.098;2023-04-24T21:56:49;7.20;99.90
16625;DHT22;8426;48.496;9.098;2023-04-24T22:01:59;7.10;99.90
16625;DHT22;8426;48.496;9.098;2023-04-24T22:07:14;7.10;99.90
16625;DHT22;8426;48.496;9.098;2023-04-24T22:12:26;7.20;99.90
16625;DHT22;8426;48.496;9.098;2023-04-24T22:17:29;7.20;99.90
16625;DHT22;8426;48.496;9.098;2023-04-24T22:22:35;7.10;99.90
16625;DHT22;8426;48.496;9.098;2023-04-24T22:27:40;7.10;99.90
16625;DHT22;8426;48.496;9.098;2023-04-24T22:32:43;7.00;99.90
16625;DHT22;8426;48.496;9.098;2023-04-24T22:37:50;6.90;99.90
16625;DHT22;8426;48.496;9.098;2023-04-24T22:43:10;6.90;99.90
16625;DHT22;8426;48.496;9.098;2023-04-24T22:48:14;6.90;99.90
16625;DHT22;8426;48.496;9.098;2023-04-24T22:53:18;6.90;99.90
16625;DHT22;8426;48.496;9.098;2023-04-24T22:58:25;6.80;99.90
16625;DHT22;8426;48.496;9.098;2023-04-24T23:03:29;6.90;99.90
16625;DHT22;8426;48.496;9.098;2023-04-24T23:08:36;6.90;99.90
16625;DHT22;8426;48.496;9.098;2023-04-24T23:13:49;6.80;99.90
16625;DHT22;8426;48.496;9.098;2023-04-24T23:18:53;6.70;99.90
16625;DHT22;8426;48.496;9.098;2023-04-24T23:24:05;6.70;99.90
16625;DHT22;8426;48.496;9.098;2023-04-24T23:29:16;6.70;99.90
16625;DHT22;8426;48.496;9.098;2023-04-24T23:34:19;6.70;99.90
16625;DHT22;8426;48.496;9.098;2023-04-24T23:39:31;6.70;99.90
16625;DHT22;8426;48.496;9.098;2023-04-24T23:44:44;6.70;99.90
16625;DHT22;8426;48.496;9.098;2023-04-24T23:49:51;6.60;99.90
16625;DHT22;8426;48.496;9.098;2023-04-24T23:54:55;6.60;99.90
